createdAt,value
2018-01-17T00:02:00.617Z,99283.13
2018-01-17T00:04:27.326Z,99279.72
2018-01-17T00:06:54.048Z,99285.25
2018-01-17T00:09:21.112Z,99293.68
2018-01-17T00:11:48.225Z,99294.89
2018-01-17T00:14:14.863Z,99305.56
2018-01-17T00:16:41.604Z,99301.20
2018-01-17T00:19:08.236Z,99301.30
2018-01-17T00:21:35.084Z,99305.05
2018-01-17T00:24:01.626Z,99300.45
2018-01-17T00:26:28.311Z,99293.66
2018-01-17T00:28:54.924Z,99294.80
2018-01-17T00:31:21.669Z,99291.61
2018-01-17T00:33:48.421Z,99296.16
2018-01-17T00:36:15.168Z,99291.21
2018-01-17T00:38:41.948Z,99292.97
2018-01-17T00:41:08.996Z,99284.09
2018-01-17T00:43:36.035Z,99283.63
2018-01-17T00:46:02.369Z,99289.45
2018-01-17T00:48:29.456Z,99287.83
2018-01-17T00:50:55.846Z,99290.00
2018-01-17T00:53:22.375Z,99301.48
2018-01-17T00:55:48.946Z,99297.86
2018-01-17T00:58:15.684Z,99295.56
2018-01-17T01:00:42.435Z,99303.38
2018-01-17T01:03:09.186Z,99303.11
2018-01-17T01:05:35.990Z,99307.36
2018-01-17T01:08:02.648Z,99304.21
2018-01-17T01:10:29.521Z,99300.41
2018-01-17T01:12:56.341Z,99303.67
2018-01-17T01:15:23.013Z,99308.82
2018-01-17T01:17:49.631Z,99318.53
2018-01-17T01:20:16.231Z,99321.85
2018-01-17T01:22:43.015Z,99323.36
2018-01-17T01:25:09.667Z,99323.47
2018-01-17T01:27:36.425Z,99322.70
2018-01-17T01:30:03.159Z,99318.81
2018-01-17T01:32:29.994Z,99326.30
2018-01-17T01:34:56.658Z,99320.23
2018-01-17T01:37:23.357Z,99327.05
2018-01-17T01:39:50.139Z,99329.54
2018-01-17T01:42:16.883Z,99336.69
2018-01-17T01:44:43.724Z,99341.09
2018-01-17T01:47:10.364Z,99336.95
2018-01-17T01:49:37.211Z,99347.15
2018-01-17T01:52:04.039Z,99344.25
2018-01-17T01:54:30.682Z,99346.90
2018-01-17T01:56:57.656Z,99347.41
2018-01-17T01:59:24.311Z,99347.73
2018-01-17T02:01:51.052Z,99347.56
2018-01-17T02:04:17.826Z,99339.09
2018-01-17T02:06:44.536Z,99349.20
2018-01-17T02:09:11.303Z,99355.92
2018-01-17T02:11:37.941Z,99356.70
2018-01-17T02:14:04.834Z,99359.45
2018-01-17T02:16:32.228Z,99367.16
2018-01-17T02:18:59.003Z,99372.94
2018-01-17T02:21:25.751Z,99365.23
2018-01-17T02:23:52.488Z,99368.66
2018-01-17T02:26:19.127Z,99370.30
2018-01-17T02:28:45.791Z,99377.20
2018-01-17T02:31:18.508Z,99372.57
2018-01-17T02:33:45.193Z,99384.34
2018-01-17T02:38:52.288Z,99396.55
2018-01-17T02:41:18.596Z,99405.58
2018-01-17T02:43:45.283Z,99399.37
2018-01-17T02:46:11.991Z,99409.39
2018-01-17T02:48:38.760Z,99410.21
2018-01-17T02:51:05.443Z,99413.72
2018-01-17T02:53:32.933Z,99419.28
2018-01-17T02:55:59.238Z,99422.92
2018-01-17T02:58:26.276Z,99413.55
2018-01-17T03:00:52.571Z,99424.50
2018-01-17T03:03:18.871Z,99430.29
2018-01-17T03:05:46.081Z,99432.55
2018-01-17T03:08:12.398Z,99430.37
2018-01-17T03:10:38.750Z,99427.81
2018-01-17T03:13:05.200Z,99417.62
2018-01-17T03:15:31.532Z,99427.73
2018-01-17T03:17:58.216Z,99427.39
2018-01-17T03:20:25.517Z,99431.88
2018-01-17T03:22:51.822Z,99435.94
2018-01-17T03:25:18.872Z,99438.42
2018-01-17T03:27:45.916Z,99444.80
2018-01-17T03:30:13.396Z,99443.56
2018-01-17T03:32:40.838Z,99454.44
2018-01-17T03:35:07.881Z,99456.44
2018-01-17T03:37:34.284Z,99463.16
2018-01-17T03:40:00.586Z,99469.84
2018-01-17T03:42:26.897Z,99469.20
2018-01-17T03:44:53.192Z,99478.98
2018-01-17T03:47:19.490Z,99478.23
2018-01-17T03:49:46.698Z,99481.47
2018-01-17T03:52:13.017Z,99485.37
2018-01-17T03:54:39.768Z,99487.51
2018-01-17T03:57:06.435Z,99488.83
2018-01-17T03:59:34.226Z,99492.47
2018-01-17T04:02:01.269Z,99496.14
2018-01-17T04:04:28.004Z,99495.89
2018-01-17T04:06:54.299Z,99503.08
2018-01-17T04:09:20.709Z,99501.75
2018-01-17T04:11:48.220Z,99510.22
2018-01-17T04:14:14.522Z,99515.78
2018-01-17T04:16:40.911Z,99515.02
2018-01-17T04:19:07.211Z,99527.11
2018-01-17T04:21:33.509Z,99533.91
2018-01-17T04:24:00.556Z,99533.49
2018-01-17T04:26:27.601Z,99540.55
2018-01-17T04:28:53.932Z,99550.81
2018-01-17T04:31:20.688Z,99547.51
2018-01-17T04:33:47.735Z,99553.72
2018-01-17T04:36:14.561Z,99552.22
2018-01-17T04:38:40.861Z,99572.11
2018-01-17T04:41:07.728Z,99567.06
2018-01-17T04:43:34.316Z,99576.59
2018-01-17T04:46:01.836Z,99588.36
2018-01-17T04:48:28.131Z,99587.45
2018-01-17T04:50:55.524Z,99577.02
2018-01-17T04:53:21.819Z,99593.14
2018-01-17T04:55:49.227Z,99589.59
2018-01-17T04:58:15.785Z,99576.33
2018-01-17T05:00:42.096Z,99590.91
2018-01-17T05:03:08.392Z,99591.89
2018-01-17T05:05:35.437Z,99601.77
2018-01-17T05:08:02.481Z,99598.13
2018-01-17T05:10:29.288Z,99608.65
2018-01-17T05:12:55.583Z,99615.19
2018-01-17T05:15:23.003Z,99617.92
2018-01-17T05:17:49.332Z,99611.58
2018-01-17T05:20:15.662Z,99633.30
2018-01-17T05:22:41.984Z,99632.81
2018-01-17T05:25:08.279Z,99642.25
2018-01-17T05:27:35.332Z,99645.22
2018-01-17T05:30:02.400Z,99644.53
2018-01-17T05:32:28.708Z,99641.31
2018-01-17T05:34:55.013Z,99651.48
2018-01-17T05:37:21.311Z,99644.98
2018-01-17T05:39:47.612Z,99650.78
2018-01-17T05:42:13.907Z,99655.19
2018-01-17T05:44:40.197Z,99663.74
2018-01-17T05:47:07.238Z,99655.51
2018-01-17T05:49:33.533Z,99662.78
2018-01-17T05:51:59.842Z,99666.28
2018-01-17T05:54:26.328Z,99672.09
2018-01-17T05:56:53.128Z,99680.13
2018-01-17T05:59:19.752Z,99671.81
2018-01-17T06:01:47.381Z,99685.12
2018-01-17T06:04:14.644Z,99686.13
2018-01-17T06:06:40.992Z,99698.56
2018-01-17T06:09:07.424Z,99705.97
2018-01-17T06:11:34.169Z,99710.67
2018-01-17T06:14:01.751Z,99702.41
2018-01-17T06:16:28.444Z,99724.70
2018-01-17T06:18:55.065Z,99722.60
2018-01-17T06:21:22.388Z,99717.42
2018-01-17T06:23:49.110Z,99731.97
2018-01-17T06:26:15.766Z,99726.98
2018-01-17T06:28:42.406Z,99729.56
2018-01-17T06:31:09.279Z,99725.38
2018-01-17T06:33:36.377Z,99731.64
2018-01-17T06:36:03.055Z,99734.45
2018-01-17T06:38:29.796Z,99740.27
2018-01-17T06:40:56.639Z,99750.52
2018-01-17T06:43:23.287Z,99754.95
2018-01-17T06:45:50.230Z,99759.38
2018-01-17T06:48:16.904Z,99757.55
2018-01-17T06:50:43.533Z,99767.96
2018-01-17T06:53:10.172Z,99762.76
2018-01-17T06:55:36.908Z,99779.50
2018-01-17T06:58:03.520Z,99777.88
2018-01-17T07:00:30.279Z,99777.30
2018-01-17T07:02:57.057Z,99765.00
2018-01-17T07:05:23.816Z,99785.12
2018-01-17T07:07:50.512Z,99793.63
2018-01-17T07:10:17.211Z,99787.87
2018-01-17T07:12:44.287Z,99783.70
2018-01-17T07:15:10.785Z,99770.65
2018-01-17T07:17:37.417Z,99798.41
2018-01-17T07:20:04.123Z,99813.39
2018-01-17T07:22:30.839Z,99820.56
2018-01-17T07:24:58.364Z,99835.35
2018-01-17T07:27:25.112Z,99848.23
2018-01-17T07:29:51.879Z,99848.86
2018-01-17T07:32:18.533Z,99846.94
2018-01-17T07:34:45.608Z,99854.86
2018-01-17T07:37:12.659Z,99854.20
2018-01-17T07:39:40.084Z,99860.63
2018-01-17T07:42:06.817Z,99861.89
2018-01-17T07:44:33.561Z,99862.64
2018-01-17T07:47:00.216Z,99888.76
2018-01-17T07:49:27.173Z,99897.59
2018-01-17T07:51:53.901Z,99910.95
2018-01-17T07:54:20.578Z,99918.23
2018-01-17T07:56:47.254Z,99916.94
2018-01-17T07:59:14.061Z,99915.16
2018-01-17T08:01:40.679Z,99918.59
2018-01-17T08:04:07.424Z,99918.77
2018-01-17T08:06:34.000Z,99931.13
2018-01-17T08:09:00.763Z,99941.11
2018-01-17T08:11:28.275Z,99941.22
2018-01-17T08:13:55.021Z,99944.62
2018-01-17T08:16:21.768Z,99947.46
2018-01-17T08:18:48.409Z,99947.07
2018-01-17T08:21:15.042Z,99949.05
2018-01-17T08:23:41.792Z,99950.30
2018-01-17T08:26:08.526Z,99955.95
2018-01-17T08:28:35.207Z,99953.38
2018-01-17T08:31:02.490Z,99974.33
2018-01-17T08:33:30.021Z,99972.09
2018-01-17T08:35:56.936Z,99967.42
2018-01-17T08:38:23.884Z,99965.53
2018-01-17T08:40:50.583Z,99970.77
2018-01-17T08:43:17.457Z,99976.09
2018-01-17T08:45:44.252Z,99974.37
2018-01-17T08:48:10.848Z,99991.23
2018-01-17T08:50:38.395Z,99989.00
2018-01-17T08:53:05.205Z,99998.06
2018-01-17T08:55:31.948Z,100015.62
2018-01-17T08:57:58.593Z,100014.63
2018-01-17T09:00:25.357Z,100017.13
2018-01-17T09:02:52.109Z,100015.88
2018-01-17T09:05:18.724Z,100014.55
2018-01-17T09:07:45.471Z,100018.28
2018-01-17T09:10:12.116Z,100032.28
2018-01-17T09:12:38.965Z,100037.91
2018-01-17T09:15:05.714Z,100043.23
2018-01-17T09:17:32.414Z,100045.08
2018-01-17T09:19:59.212Z,100051.82
2018-01-17T09:22:26.021Z,100058.14
2018-01-17T09:24:52.784Z,100052.25
2018-01-17T09:27:19.648Z,100050.32
2018-01-17T09:29:46.451Z,100057.97
2018-01-17T09:32:13.136Z,100053.06
2018-01-17T09:34:39.784Z,100067.97
2018-01-17T09:37:06.524Z,100072.61
2018-01-17T09:39:33.278Z,100077.37
2018-01-17T09:41:59.925Z,100077.94
2018-01-17T09:44:26.548Z,100086.78
2018-01-17T09:46:53.306Z,100093.92
2018-01-17T09:49:20.603Z,100103.33
2018-01-17T09:51:48.017Z,100109.00
2018-01-17T09:54:14.677Z,100125.41
2018-01-17T09:56:41.463Z,100123.31
2018-01-17T09:59:08.971Z,100124.25
2018-01-17T10:01:35.749Z,100122.23
2018-01-17T10:04:03.208Z,100128.33
2018-01-17T10:06:29.922Z,100133.48
2018-01-17T10:08:56.725Z,100140.15
2018-01-17T10:11:24.141Z,100149.38
2018-01-17T10:13:50.811Z,100143.30
2018-01-17T10:16:17.628Z,100158.99
2018-01-17T10:18:44.379Z,100158.55
2018-01-17T10:21:11.117Z,100162.48
2018-01-17T10:23:37.875Z,100157.16
2018-01-17T10:26:04.721Z,100165.20
2018-01-17T10:28:31.377Z,100159.22
2018-01-17T10:30:57.983Z,100172.92
2018-01-17T10:33:24.738Z,100166.37
2018-01-17T10:35:51.536Z,100183.16
2018-01-17T10:38:18.585Z,100184.19
2018-01-17T10:40:45.085Z,100190.62
2018-01-17T10:43:11.852Z,100194.37
2018-01-17T10:45:38.661Z,100197.02
2018-01-17T10:48:05.423Z,100176.93
2018-01-17T10:50:32.059Z,100184.31
2018-01-17T10:52:58.790Z,100187.30
2018-01-17T10:55:25.896Z,100197.53
2018-01-17T10:57:52.223Z,100198.75
2018-01-17T11:00:18.905Z,100209.06
2018-01-17T11:02:45.952Z,100202.81
2018-01-17T11:05:12.991Z,100212.83
2018-01-17T11:07:40.040Z,100204.66
2018-01-17T11:10:07.195Z,100203.78
2018-01-17T11:12:33.533Z,100206.70
2018-01-17T11:15:00.042Z,100206.07
2018-01-17T11:17:26.826Z,100206.58
2018-01-17T11:19:53.867Z,100212.45
2018-01-17T11:22:20.652Z,100208.22
2018-01-17T11:24:47.603Z,100210.03
2018-01-17T11:27:14.495Z,100214.09
2018-01-17T11:29:41.234Z,100210.59
2018-01-17T11:32:08.008Z,100204.17
2018-01-17T11:34:34.816Z,100213.28
2018-01-17T11:37:01.776Z,100213.66
2018-01-17T11:39:28.543Z,100212.18
2018-01-17T11:41:55.306Z,100234.81
2018-01-17T11:44:22.360Z,100220.16
2018-01-17T11:46:49.484Z,100233.17
2018-01-17T11:49:16.325Z,100232.84
2018-01-17T11:51:43.065Z,100231.44
2018-01-17T11:54:09.912Z,100232.33
2018-01-17T11:56:36.589Z,100246.14
2018-01-17T11:59:03.410Z,100238.68
2018-01-17T12:01:30.118Z,100232.61
2018-01-17T12:03:56.820Z,100239.20
2018-01-17T12:06:23.561Z,100249.06
2018-01-17T12:08:50.367Z,100244.56
2018-01-17T12:11:17.090Z,100239.16
2018-01-17T12:13:43.753Z,100245.84
2018-01-17T12:16:10.431Z,100256.59
2018-01-17T12:18:37.163Z,100249.03
2018-01-17T12:21:04.027Z,100257.28
2018-01-17T12:23:30.783Z,100275.03
2018-01-17T12:25:57.617Z,100284.67
2018-01-17T12:28:24.239Z,100292.66
2018-01-17T12:30:50.996Z,100283.36
2018-01-17T12:33:18.006Z,100278.33
2018-01-17T12:35:45.415Z,100305.94
2018-01-17T12:38:12.179Z,100291.36
2018-01-17T12:40:39.006Z,100286.03
2018-01-17T12:43:05.588Z,100288.09
2018-01-17T12:45:32.689Z,100302.59
2018-01-17T12:47:59.388Z,100303.33
2018-01-17T12:50:26.901Z,100319.48
2018-01-17T12:52:53.728Z,100315.42
2018-01-17T12:55:20.432Z,100328.94
2018-01-17T12:57:47.965Z,100325.48
2018-01-17T13:00:14.728Z,100324.16
2018-01-17T13:02:41.348Z,100343.11
2018-01-17T13:05:08.007Z,100338.41
2018-01-17T13:07:34.743Z,100354.56
2018-01-17T13:10:01.397Z,100360.21
2018-01-17T13:12:28.152Z,100368.31
2018-01-17T13:14:54.910Z,100384.22
2018-01-17T13:17:21.650Z,100378.12
2018-01-17T13:19:48.396Z,100373.91
2018-01-17T13:22:14.982Z,100383.46
2018-01-17T13:24:41.685Z,100376.44
2018-01-17T13:27:08.505Z,100394.03
2018-01-17T13:29:35.164Z,100389.56
2018-01-17T13:32:01.888Z,100406.66
2018-01-17T13:34:28.519Z,100416.69
2018-01-17T13:36:55.268Z,100414.00
2018-01-17T13:39:22.088Z,100400.30
2018-01-17T13:41:49.031Z,100404.91
2018-01-17T13:44:16.131Z,100410.13
2018-01-17T13:46:42.521Z,100425.64
2018-01-17T13:49:09.606Z,100429.12
2018-01-17T13:51:36.278Z,100442.55
2018-01-17T13:54:02.923Z,100441.28
2018-01-17T13:56:29.617Z,100445.18
2018-01-17T13:58:56.401Z,100462.16
2018-01-17T14:01:23.250Z,100456.95
2018-01-17T14:03:50.099Z,100468.30
2018-01-17T14:06:16.919Z,100461.55
2018-01-17T14:08:43.584Z,100475.84
2018-01-17T14:11:10.349Z,100482.69
2018-01-17T14:13:37.080Z,100498.19
2018-01-17T14:16:03.826Z,100498.11
2018-01-17T14:18:30.568Z,100502.25
2018-01-17T14:20:57.312Z,100504.44
2018-01-17T14:23:24.016Z,100487.58
2018-01-17T14:25:51.596Z,100501.00
2018-01-17T14:28:18.304Z,100515.98
2018-01-17T14:30:45.071Z,100515.08
2018-01-17T14:33:12.120Z,100516.30
2018-01-17T14:35:39.208Z,100531.08
2018-01-17T14:38:05.556Z,100535.22
2018-01-17T14:40:32.156Z,100558.03
2018-01-17T14:43:05.326Z,100561.80
2018-01-17T14:45:31.701Z,100558.33
2018-01-17T14:47:58.493Z,100567.17
2018-01-17T14:50:25.345Z,100572.25
2018-01-17T14:52:52.206Z,100572.05
2018-01-17T14:55:19.312Z,100581.15
2018-01-17T14:57:45.781Z,100583.02
2018-01-17T15:00:16.566Z,100599.02
2018-01-17T15:02:43.356Z,100594.20
2018-01-17T15:05:10.044Z,100593.52
2018-01-17T15:07:37.088Z,100604.36
2018-01-17T15:10:04.137Z,100611.97
2018-01-17T15:12:30.491Z,100616.33
2018-01-17T15:15:05.936Z,100616.17
2018-01-17T15:17:32.475Z,100615.93
2018-01-17T15:19:59.278Z,100620.20
2018-01-17T15:22:25.876Z,100635.95
2018-01-17T15:24:52.952Z,100629.00
2018-01-17T15:27:19.347Z,100635.66
2018-01-17T15:29:45.835Z,100643.69
2018-01-17T15:32:12.518Z,100658.52
2018-01-17T15:34:39.416Z,100658.56
2018-01-17T15:37:06.126Z,100650.41
2018-01-17T15:39:32.948Z,100658.59
2018-01-17T15:41:59.621Z,100657.22
2018-01-17T15:44:26.432Z,100665.16
2018-01-17T15:46:53.174Z,100665.55
2018-01-17T15:49:20.741Z,100664.52
2018-01-17T15:51:47.461Z,100677.53
2018-01-17T15:54:14.172Z,100678.08
2018-01-17T15:56:40.851Z,100676.16
2018-01-17T15:59:07.530Z,100682.36
2018-01-17T16:01:34.084Z,100683.34
2018-01-17T16:04:00.837Z,100679.52
2018-01-17T16:06:27.694Z,100686.34
2018-01-17T16:08:54.409Z,100701.91
2018-01-17T16:11:21.218Z,100697.02
2018-01-17T16:13:48.638Z,100690.67
2018-01-17T16:16:15.276Z,100701.83
2018-01-17T16:18:41.950Z,100704.77
2018-01-17T16:21:09.413Z,100702.10
2018-01-17T16:23:36.500Z,100700.41
2018-01-17T16:26:02.874Z,100703.45
2018-01-17T16:28:29.411Z,100696.34
2018-01-17T16:30:56.258Z,100711.50
2018-01-17T16:33:23.092Z,100705.72
2018-01-17T16:35:49.929Z,100719.86
2018-01-17T16:38:16.687Z,100724.34
2018-01-17T16:40:43.240Z,100726.88
2018-01-17T16:43:09.909Z,100721.89
2018-01-17T16:45:36.677Z,100732.31
2018-01-17T16:48:03.496Z,100733.57
2018-01-17T16:50:30.208Z,100738.31
2018-01-17T16:52:56.881Z,100740.45
2018-01-17T16:55:23.699Z,100741.72
2018-01-17T16:57:50.349Z,100738.45
2018-01-17T17:00:17.094Z,100744.30
2018-01-17T17:02:43.885Z,100741.52
2018-01-17T17:05:10.953Z,100749.53
2018-01-17T17:07:37.782Z,100738.97
2018-01-17T17:10:04.874Z,100744.97
2018-01-17T17:12:31.272Z,100738.00
2018-01-17T17:14:58.341Z,100744.77
2018-01-17T17:17:25.133Z,100738.38
2018-01-17T17:19:51.814Z,100734.23
2018-01-17T17:22:19.271Z,100748.16
2018-01-17T17:24:46.095Z,100738.00
2018-01-17T17:27:12.826Z,100741.02
2018-01-17T17:29:39.597Z,100740.81
2018-01-17T17:32:06.336Z,100738.71
2018-01-17T17:34:32.929Z,100725.48
2018-01-17T17:36:59.657Z,100744.62
2018-01-17T17:39:27.283Z,100737.16
2018-01-17T17:41:54.032Z,100744.66
2018-01-17T17:44:20.999Z,100741.59
2018-01-17T17:46:47.919Z,100735.80
2018-01-17T17:49:14.769Z,100746.45
2018-01-17T17:51:41.485Z,100744.14
2018-01-17T17:54:08.175Z,100747.38
2018-01-17T17:56:34.887Z,100751.78
2018-01-17T17:59:02.705Z,100738.63
2018-01-17T18:01:29.440Z,100741.72
2018-01-17T18:03:56.109Z,100747.44
2018-01-17T18:06:23.670Z,100741.33
2018-01-17T18:08:51.040Z,100738.55
2018-01-17T18:11:17.672Z,100742.70
2018-01-17T18:13:45.020Z,100741.80
2018-01-17T18:16:11.650Z,100741.68
2018-01-17T18:18:38.451Z,100744.30
2018-01-17T18:21:05.248Z,100747.12
2018-01-17T18:23:32.030Z,100742.48
2018-01-17T18:25:59.429Z,100735.49
2018-01-17T18:28:26.039Z,100744.17
2018-01-17T18:30:52.840Z,100740.66
2018-01-17T18:33:26.390Z,100740.44
2018-01-17T18:35:53.019Z,100741.58
2018-01-17T18:38:20.428Z,100745.00
2018-01-17T18:40:47.186Z,100737.07
2018-01-17T18:43:13.799Z,100746.45
2018-01-17T18:45:40.429Z,100744.72
2018-01-17T18:48:07.450Z,100741.39
2018-01-17T18:50:34.891Z,100738.91
2018-01-17T18:53:01.515Z,100727.86
2018-01-17T18:55:28.108Z,100738.97
2018-01-17T18:57:54.732Z,100744.20
2018-01-17T19:00:21.409Z,100753.69
2018-01-17T19:02:48.197Z,100740.23
2018-01-17T19:05:14.879Z,100744.46
2018-01-17T19:07:42.290Z,100742.20
2018-01-17T19:10:08.970Z,100747.19
2018-01-17T19:12:35.605Z,100738.56
2018-01-17T19:15:02.306Z,100738.73
2018-01-17T19:17:29.804Z,100732.56
2018-01-17T19:19:56.662Z,100734.67
2018-01-17T19:22:23.652Z,100734.41
2018-01-17T19:24:50.637Z,100728.16
2018-01-17T19:27:17.450Z,100735.08
2018-01-17T19:29:44.360Z,100726.88
2018-01-17T19:32:11.154Z,100723.69
2018-01-17T19:34:38.176Z,100721.97
2018-01-17T19:37:05.632Z,100723.98
2018-01-17T19:39:32.278Z,100716.76
2018-01-17T19:41:59.081Z,100719.47
2018-01-17T19:44:25.727Z,100709.54
2018-01-17T19:46:52.338Z,100715.03
2018-01-17T19:49:19.032Z,100714.04
2018-01-17T19:51:45.678Z,100717.60
2018-01-17T19:54:12.437Z,100722.16
2018-01-17T19:56:39.159Z,100723.64
2018-01-17T19:59:06.213Z,100724.86
2018-01-17T20:01:32.864Z,100731.59
2018-01-17T20:03:59.531Z,100729.38
2018-01-17T20:06:27.022Z,100727.25
2018-01-17T20:08:53.904Z,100730.05
2018-01-17T20:11:20.767Z,100722.23
2018-01-17T20:13:47.455Z,100731.91
2018-01-17T20:16:14.360Z,100733.22
2018-01-17T20:18:41.058Z,100739.23
2018-01-17T20:21:07.935Z,100743.59
2018-01-17T20:23:34.697Z,100733.06
2018-01-17T20:26:01.754Z,100734.59
2018-01-17T20:28:28.556Z,100740.85
2018-01-17T20:30:55.550Z,100735.39
2018-01-17T20:33:22.292Z,100740.39
2018-01-17T20:35:48.974Z,100741.02
2018-01-17T20:38:16.492Z,100735.29
2018-01-17T20:40:43.110Z,100741.75
2018-01-17T20:43:10.013Z,100749.30
2018-01-17T20:45:37.564Z,100743.72
2018-01-17T20:48:04.316Z,100745.30
2018-01-17T20:50:31.880Z,100740.20
2018-01-17T20:53:00.336Z,100748.34
2018-01-17T20:55:27.212Z,100746.33
2018-01-17T20:57:53.995Z,100745.73
2018-01-17T21:00:21.538Z,100741.63
2018-01-17T21:02:48.452Z,100745.14
2018-01-17T21:05:15.278Z,100740.05
2018-01-17T21:07:41.992Z,100746.80
2018-01-17T21:10:09.648Z,100743.91
2018-01-17T21:12:36.460Z,100737.45
2018-01-17T21:15:03.113Z,100731.23
2018-01-17T21:17:29.769Z,100731.89
2018-01-17T21:19:56.621Z,100728.44
2018-01-17T21:22:23.346Z,100732.52
2018-01-17T21:24:49.947Z,100734.20
2018-01-17T21:27:16.290Z,100739.54
2018-01-17T21:29:42.694Z,100742.94
2018-01-17T21:32:09.740Z,100743.19
2018-01-17T21:34:36.569Z,100736.86
2018-01-17T21:37:03.356Z,100731.14
2018-01-17T21:39:30.436Z,100732.83
2018-01-17T21:41:56.787Z,100735.94
2018-01-17T21:44:29.308Z,100725.34
2018-01-17T21:46:56.387Z,100726.16
2018-01-17T21:49:23.093Z,100719.95
2018-01-17T21:51:49.428Z,100709.49
2018-01-17T21:54:16.118Z,100706.80
2018-01-17T21:56:42.441Z,100708.53
2018-01-17T21:59:09.870Z,100711.95
2018-01-17T22:01:36.201Z,100708.86
2018-01-17T22:04:02.824Z,100717.88
2018-01-17T22:06:29.153Z,100713.45
2018-01-17T22:08:55.472Z,100702.38
2018-01-17T22:11:22.144Z,100710.89
2018-01-17T22:13:48.453Z,100709.74
2018-01-17T22:16:14.764Z,100701.56
2018-01-17T22:18:41.818Z,100688.09
2018-01-17T22:21:35.174Z,100688.13
2018-01-17T22:24:01.889Z,100697.44
2018-01-17T22:26:28.559Z,100696.47
2018-01-17T22:28:55.304Z,100685.52
2018-01-17T22:31:22.434Z,100679.18
2018-01-17T22:33:48.955Z,100673.48
2018-01-17T22:36:15.833Z,100672.22
2018-01-17T22:38:42.688Z,100669.45
2018-01-17T22:41:09.173Z,100669.44
2018-01-17T22:43:36.630Z,100675.62
2018-01-17T22:46:03.913Z,100668.01
2018-01-17T22:48:30.757Z,100661.86
2018-01-17T22:50:57.148Z,100655.78
2018-01-17T22:53:23.541Z,100649.84
2018-01-17T22:55:50.275Z,100637.48
2018-01-17T22:58:16.684Z,100638.34
2018-01-17T23:00:44.314Z,100630.14
2018-01-17T23:03:10.974Z,100623.34
2018-01-17T23:05:37.502Z,100628.62
2018-01-17T23:08:04.082Z,100619.98
2018-01-17T23:10:31.644Z,100625.44
2018-01-17T23:12:58.924Z,100618.48
2018-01-17T23:15:25.413Z,100624.13
2018-01-17T23:17:52.189Z,100611.75
2018-01-17T23:20:19.436Z,100605.94
2018-01-17T23:22:46.697Z,100607.73
2018-01-17T23:25:13.499Z,100605.28
2018-01-17T23:27:40.341Z,100602.75
2018-01-17T23:30:06.834Z,100587.38
2018-01-17T23:32:33.408Z,100593.23
2018-01-17T23:34:59.959Z,100581.73
2018-01-17T23:37:26.320Z,100573.55
2018-01-17T23:39:53.058Z,100569.29
2018-01-17T23:42:19.735Z,100566.91
2018-01-17T23:44:46.236Z,100562.77
2018-01-17T23:47:12.594Z,100557.53
2018-01-17T23:49:38.981Z,100545.24
2018-01-17T23:52:05.731Z,100535.41
2018-01-17T23:54:32.144Z,100524.57
2018-01-17T23:56:58.500Z,100532.84
2018-01-17T23:59:24.887Z,100528.50
